createdAt,value
2018-08-07T00:01:43.851Z,8.43
2018-08-07T00:04:12.626Z,8.30
2018-08-07T00:06:41.233Z,7.60
2018-08-07T00:09:10.820Z,7.22
2018-08-07T00:11:39.013Z,9.05
2018-08-07T00:14:07.465Z,8.28
2018-08-07T00:16:35.853Z,9.05
2018-08-07T00:19:03.994Z,8.35
2018-08-07T00:21:32.258Z,8.68
2018-08-07T00:24:00.448Z,8.28
2018-08-07T00:26:28.610Z,8.55
2018-08-07T00:28:56.802Z,8.50
2018-08-07T00:31:25.101Z,8.40
2018-08-07T00:33:53.754Z,8.80
2018-08-07T00:36:21.919Z,8.28
2018-08-07T00:38:50.222Z,8.15
2018-08-07T00:41:18.450Z,7.50
2018-08-07T00:43:46.662Z,7.90
2018-08-07T00:46:14.911Z,8.68
2018-08-07T00:48:43.097Z,9.50
2018-08-07T00:51:11.265Z,9.65
2018-08-07T00:53:39.477Z,9.43
2018-08-07T00:56:07.722Z,9.37
2018-08-07T00:58:35.926Z,10.35
2018-08-07T01:01:04.085Z,10.75
2018-08-07T01:03:32.257Z,10.37
2018-08-07T01:06:00.442Z,9.28
2018-08-07T01:08:28.809Z,9.33
2018-08-07T01:10:57.005Z,9.93
2018-08-07T01:13:25.634Z,9.75
2018-08-07T01:15:53.855Z,9.93
2018-08-07T01:18:22.085Z,9.53
2018-08-07T01:20:50.316Z,9.50
2018-08-07T01:23:18.562Z,9.23
2018-08-07T01:25:46.721Z,9.80
2018-08-07T01:28:14.922Z,9.13
2018-08-07T01:30:43.166Z,9.87
2018-08-07T01:33:11.349Z,9.60
2018-08-07T01:35:39.519Z,8.90
2018-08-07T01:38:08.187Z,9.18
2018-08-07T01:40:36.682Z,9.20
2018-08-07T01:43:05.080Z,9.03
2018-08-07T01:45:33.313Z,9.33
2018-08-07T01:48:01.526Z,9.13
2018-08-07T01:50:30.025Z,10.48
2018-08-07T01:52:58.244Z,10.68
2018-08-07T01:55:27.829Z,11.17
2018-08-07T01:57:56.422Z,10.03
2018-08-07T02:00:25.490Z,9.73
2018-08-07T02:02:53.753Z,10.80
2018-08-07T02:05:21.912Z,10.57
2018-08-07T02:07:50.074Z,10.30
2018-08-07T02:10:19.349Z,10.60
2018-08-07T02:12:47.558Z,10.93
2018-08-07T02:15:16.230Z,11.37
2018-08-07T02:17:44.487Z,11.50
2018-08-07T02:20:14.893Z,11.03
2018-08-07T02:22:43.789Z,11.60
2018-08-07T02:25:14.305Z,11.23
2018-08-07T02:27:43.013Z,11.63
2018-08-07T02:30:13.190Z,12.70
2018-08-07T02:32:41.902Z,11.67
2018-08-07T02:35:11.322Z,12.17
2018-08-07T02:37:39.999Z,10.90
2018-08-07T02:40:09.414Z,10.90
2018-08-07T02:42:37.610Z,10.10
2018-08-07T02:45:07.961Z,9.63
2018-08-07T02:47:36.295Z,10.20
2018-08-07T02:50:05.377Z,10.00
2018-08-07T02:52:33.560Z,10.27
2018-08-07T02:55:01.774Z,11.03
2018-08-07T02:57:29.957Z,10.80
2018-08-07T02:59:58.174Z,11.37
2018-08-07T03:02:26.346Z,12.23
2018-08-07T03:04:55.026Z,10.53
2018-08-07T03:07:23.247Z,11.97
2018-08-07T03:09:51.662Z,11.30
2018-08-07T03:12:19.841Z,11.97
2018-08-07T03:14:48.026Z,11.83
2018-08-07T03:17:16.190Z,14.07
2018-08-07T03:19:44.414Z,13.90
2018-08-07T03:22:12.614Z,12.97
2018-08-07T03:24:40.818Z,12.57
2018-08-07T03:27:09.078Z,14.00
2018-08-07T03:29:37.265Z,12.90
2018-08-07T03:32:05.479Z,11.87
2018-08-07T03:34:33.434Z,12.10
2018-08-07T03:37:01.681Z,12.80
2018-08-07T03:39:29.874Z,11.90
2018-08-07T03:41:58.033Z,13.30
2018-08-07T03:44:26.245Z,12.63
2018-08-07T03:46:54.476Z,14.10
2018-08-07T03:49:23.287Z,15.17
2018-08-07T03:51:51.335Z,14.87
2018-08-07T03:54:19.591Z,14.40
2018-08-07T03:56:47.781Z,14.93
2018-08-07T03:59:15.974Z,13.93
2018-08-07T04:01:44.174Z,15.20
2018-08-07T04:04:12.369Z,13.83
2018-08-07T04:06:40.554Z,14.17
2018-08-07T04:09:11.666Z,14.50
2018-08-07T04:11:39.976Z,14.93
2018-08-07T04:14:08.617Z,13.53
2018-08-07T04:16:38.798Z,14.03
2018-08-07T04:19:06.996Z,13.77
2018-08-07T04:21:35.220Z,11.43
2018-08-07T04:24:03.426Z,12.63
2018-08-07T04:26:31.666Z,11.97
2018-08-07T04:28:59.829Z,12.00
2018-08-07T04:31:28.043Z,11.90
2018-08-07T04:33:56.228Z,11.30
2018-08-07T04:36:24.538Z,12.87
2018-08-07T04:38:52.778Z,12.27
2018-08-07T04:41:20.953Z,12.63
2018-08-07T04:43:49.130Z,12.43
2018-08-07T04:46:17.777Z,12.90
2018-08-07T04:48:46.026Z,13.20
2018-08-07T04:51:14.261Z,13.13
2018-08-07T04:53:42.873Z,13.53
2018-08-07T04:56:11.081Z,12.30
2018-08-07T04:58:39.289Z,12.45
2018-08-07T05:01:07.667Z,12.00
2018-08-07T05:03:36.777Z,11.22
2018-08-07T05:06:04.953Z,10.70
2018-08-07T05:08:33.524Z,11.48
2018-08-07T05:11:01.785Z,11.60
2018-08-07T05:13:29.963Z,10.18
2018-08-07T05:15:58.252Z,9.90
2018-08-07T05:18:26.465Z,10.05
2018-08-07T05:20:54.682Z,11.10
2018-08-07T05:23:22.833Z,11.80
2018-08-07T05:25:51.549Z,10.75
2018-08-07T05:28:19.746Z,9.95
2018-08-07T05:30:47.969Z,8.78
2018-08-07T05:33:16.141Z,8.53
2018-08-07T05:35:46.012Z,9.68
2018-08-07T05:38:14.565Z,9.63
2018-08-07T05:40:42.818Z,9.25
2018-08-07T05:43:10.969Z,9.23
2018-08-07T05:45:39.802Z,10.03
2018-08-07T05:48:08.013Z,10.40
2018-08-07T05:50:36.355Z,10.85
2018-08-07T05:53:04.405Z,10.28
2018-08-07T05:55:32.984Z,10.50
2018-08-07T05:58:01.239Z,9.18
2018-08-07T06:00:29.409Z,9.40
2018-08-07T06:02:57.613Z,8.13
2018-08-07T06:05:25.806Z,6.95
2018-08-07T06:07:54.030Z,7.15
2018-08-07T06:10:22.211Z,6.20
2018-08-07T06:12:50.357Z,6.37
2018-08-07T06:15:18.748Z,6.70
2018-08-07T06:17:47.341Z,6.97
2018-08-07T06:20:15.510Z,7.30
2018-08-07T06:22:43.748Z,7.97
2018-08-07T06:25:12.026Z,9.93
2018-08-07T06:27:40.275Z,8.35
2018-08-07T06:30:12.073Z,8.28
2018-08-07T06:32:42.294Z,8.03
2018-08-07T06:35:10.681Z,9.23
2018-08-07T06:37:38.860Z,7.35
2018-08-07T06:40:08.997Z,7.40
2018-08-07T06:42:37.493Z,7.25
2018-08-07T06:45:06.404Z,8.33
2018-08-07T06:47:34.761Z,8.33
2018-08-07T06:50:03.182Z,8.33
2018-08-07T06:52:32.138Z,8.20
2018-08-07T06:55:00.325Z,7.03
2018-08-07T06:57:28.490Z,6.30
2018-08-07T06:59:56.677Z,6.62
2018-08-07T07:02:24.912Z,5.35
2018-08-07T07:04:53.159Z,5.90
2018-08-07T07:07:21.370Z,4.47
2018-08-07T07:09:49.603Z,4.72
2018-08-07T07:12:17.825Z,4.50
2018-08-07T07:14:46.915Z,4.75
2018-08-07T07:17:15.085Z,4.37
2018-08-07T07:19:43.309Z,5.37
2018-08-07T07:22:11.477Z,4.50
2018-08-07T07:24:40.037Z,4.60
2018-08-07T07:27:08.190Z,4.47
2018-08-07T07:29:37.087Z,5.10
2018-08-07T07:32:05.873Z,4.70
2018-08-07T07:34:34.131Z,4.58
2018-08-07T07:37:02.335Z,4.55
2018-08-07T07:39:30.544Z,5.10
2018-08-07T07:41:58.713Z,5.22
2018-08-07T07:44:26.699Z,4.72
2018-08-07T07:46:54.969Z,5.47
2018-08-07T07:49:23.170Z,4.53
2018-08-07T07:51:51.354Z,4.53
2018-08-07T07:54:19.598Z,4.62
2018-08-07T07:56:47.847Z,4.62
2018-08-07T07:59:15.997Z,4.65
2018-08-07T08:01:44.234Z,5.22
2018-08-07T08:04:12.623Z,4.90
2018-08-07T08:06:40.878Z,4.72
2018-08-07T08:09:09.054Z,4.78
2018-08-07T08:11:37.294Z,4.17
2018-08-07T08:14:05.519Z,4.25
2018-08-07T08:16:33.775Z,5.17
2018-08-07T08:19:01.958Z,4.83
2018-08-07T08:21:30.202Z,4.60
2018-08-07T08:23:58.423Z,4.90
2018-08-07T08:26:26.618Z,4.83
2018-08-07T08:28:55.177Z,4.67
2018-08-07T08:31:23.773Z,5.00
2018-08-07T08:33:51.985Z,5.53
2018-08-07T08:36:20.236Z,5.60
2018-08-07T08:38:48.688Z,4.92
2018-08-07T08:41:16.871Z,4.60
2018-08-07T08:43:45.063Z,4.67
2018-08-07T08:46:13.316Z,5.22
2018-08-07T08:48:41.598Z,5.65
2018-08-07T08:51:09.726Z,5.05
2018-08-07T08:53:38.763Z,5.72
2018-08-07T08:56:06.991Z,5.30
2018-08-07T08:58:36.565Z,4.85
2018-08-07T09:01:04.785Z,5.50
2018-08-07T09:03:33.014Z,5.45
2018-08-07T09:06:01.198Z,5.50
2018-08-07T09:08:29.395Z,4.50
2018-08-07T09:10:57.720Z,5.28
2018-08-07T09:13:25.913Z,5.25
2018-08-07T09:15:54.069Z,5.40
2018-08-07T09:18:22.271Z,4.90
2018-08-07T09:20:50.809Z,4.85
2018-08-07T09:23:19.009Z,5.03
2018-08-07T09:25:47.403Z,5.25
2018-08-07T09:28:15.383Z,5.42
2018-08-07T09:30:43.601Z,5.00
2018-08-07T09:33:11.914Z,5.30
2018-08-07T09:35:40.097Z,5.90
2018-08-07T09:38:08.322Z,6.15
2018-08-07T09:40:36.501Z,5.35
2018-08-07T09:43:04.769Z,8.38
2018-08-07T09:45:35.162Z,4.85
2018-08-07T09:48:09.031Z,6.05
2018-08-07T09:50:37.325Z,5.80
2018-08-07T09:53:05.638Z,5.70
2018-08-07T09:55:33.881Z,5.28
2018-08-07T09:58:02.638Z,5.50
2018-08-07T10:00:36.287Z,4.40
2018-08-07T10:03:09.282Z,5.83
2018-08-07T10:05:37.700Z,5.30
2018-08-07T10:08:05.877Z,5.30
2018-08-07T10:10:34.084Z,5.10
2018-08-07T10:13:02.517Z,5.12
2018-08-07T10:15:30.473Z,5.33
2018-08-07T10:17:59.305Z,5.15
2018-08-07T10:20:27.450Z,5.90
2018-08-07T10:22:55.997Z,5.80
2018-08-07T10:25:24.374Z,6.10
2018-08-07T10:27:53.045Z,5.42
2018-08-07T10:30:22.805Z,5.35
2018-08-07T10:32:52.527Z,6.10
2018-08-07T10:35:20.731Z,5.75
2018-08-07T10:37:52.969Z,5.30
2018-08-07T10:40:22.993Z,5.95
2018-08-07T10:42:51.250Z,5.62
2018-08-07T10:45:20.563Z,5.12
2018-08-07T10:47:48.890Z,5.33
2018-08-07T10:50:19.276Z,5.20
2018-08-07T10:52:47.867Z,5.20
2018-08-07T10:55:16.519Z,4.85
2018-08-07T10:57:46.354Z,5.08
2018-08-07T11:00:21.806Z,5.03
2018-08-07T11:02:50.710Z,5.20
2018-08-07T11:05:19.465Z,4.75
2018-08-07T11:07:47.384Z,4.72
2018-08-07T11:10:15.994Z,4.65
2018-08-07T11:12:44.234Z,4.97
2018-08-07T11:15:19.294Z,4.80
2018-08-07T11:17:48.419Z,5.40
2018-08-07T11:20:16.984Z,5.33
2018-08-07T11:22:47.734Z,5.30
2018-08-07T11:25:17.937Z,4.55
2018-08-07T11:27:46.109Z,4.47
2018-08-07T11:30:16.590Z,5.08
2018-08-07T11:32:45.230Z,5.25
2018-08-07T11:35:13.942Z,5.50
2018-08-07T11:37:43.209Z,5.03
2018-08-07T11:40:13.841Z,5.62
2018-08-07T11:42:42.341Z,4.80
2018-08-07T11:45:12.853Z,5.30
2018-08-07T11:47:41.107Z,5.60
2018-08-07T11:50:13.177Z,5.12
2018-08-07T11:52:41.455Z,5.75
2018-08-07T11:55:11.569Z,5.72
2018-08-07T11:57:39.762Z,5.97
2018-08-07T12:00:41.090Z,5.85
2018-08-07T12:03:10.593Z,5.87
2018-08-07T12:05:39.102Z,5.90
2018-08-07T12:08:07.880Z,5.67
2018-08-07T12:10:36.057Z,5.67
2018-08-07T12:13:04.262Z,5.67
2018-08-07T12:15:32.413Z,5.62
2018-08-07T12:18:00.617Z,5.58
2018-08-07T12:20:28.931Z,6.05
2018-08-07T12:22:57.823Z,5.62
2018-08-07T12:25:26.377Z,5.92
2018-08-07T12:27:54.673Z,5.62
2018-08-07T12:30:25.661Z,5.83
2018-08-07T12:32:53.902Z,5.55
2018-08-07T12:35:22.156Z,5.85
2018-08-07T12:37:50.475Z,5.33
2018-08-07T12:40:21.001Z,5.37
2018-08-07T12:42:49.767Z,5.65
2018-08-07T12:45:18.156Z,5.55
2018-08-07T12:47:46.954Z,5.53
2018-08-07T12:50:16.042Z,5.22
2018-08-07T12:52:44.290Z,5.67
2018-08-07T12:55:14.212Z,5.53
2018-08-07T12:57:42.591Z,5.40
2018-08-07T13:00:14.143Z,5.20
2018-08-07T13:02:42.407Z,4.90
2018-08-07T13:05:10.631Z,5.72
2018-08-07T13:07:38.783Z,5.67
2018-08-07T13:10:09.798Z,5.35
2018-08-07T13:12:38.535Z,5.40
2018-08-07T13:15:07.799Z,5.50
2018-08-07T13:17:36.066Z,5.60
2018-08-07T13:20:06.240Z,5.53
2018-08-07T13:22:34.859Z,5.30
2018-08-07T13:25:03.058Z,5.53
2018-08-07T13:27:31.725Z,5.40
2018-08-07T13:29:59.990Z,5.60
2018-08-07T13:32:29.232Z,5.62
2018-08-07T13:34:57.449Z,5.70
2018-08-07T13:37:26.075Z,5.40
2018-08-07T13:39:54.265Z,5.85
2018-08-07T13:42:22.545Z,5.12
2018-08-07T13:44:50.697Z,5.95
2018-08-07T13:47:18.906Z,6.03
2018-08-07T13:49:47.124Z,6.78
2018-08-07T13:52:15.410Z,5.90
2018-08-07T13:54:43.594Z,5.97
2018-08-07T13:57:12.094Z,6.37
2018-08-07T13:59:40.327Z,5.65
2018-08-07T14:02:08.785Z,6.25
2018-08-07T14:04:37.626Z,5.95
2018-08-07T14:07:05.804Z,5.87
2018-08-07T14:09:34.110Z,5.05
2018-08-07T14:12:02.429Z,6.33
2018-08-07T14:14:30.567Z,5.08
2018-08-07T14:16:58.709Z,4.62
2018-08-07T14:19:26.882Z,5.12
2018-08-07T14:21:55.118Z,5.03
2018-08-07T14:24:23.353Z,4.87
2018-08-07T14:26:51.642Z,5.15
2018-08-07T14:29:19.857Z,4.87
2018-08-07T14:31:48.147Z,6.08
2018-08-07T14:34:16.356Z,5.00
2018-08-07T14:36:44.583Z,6.00
2018-08-07T14:39:12.786Z,5.22
2018-08-07T14:41:40.918Z,5.50
2018-08-07T14:44:09.713Z,6.00
2018-08-07T14:46:38.355Z,6.08
2018-08-07T14:49:06.573Z,6.03
2018-08-07T14:51:34.801Z,5.87
2018-08-07T14:54:03.010Z,5.53
2018-08-07T14:56:31.157Z,6.42
2018-08-07T14:58:59.332Z,7.05
2018-08-07T15:01:27.504Z,6.60
2018-08-07T15:03:56.865Z,7.55
2018-08-07T15:06:25.083Z,6.28
2018-08-07T15:08:53.250Z,5.30
2018-08-07T15:11:21.418Z,5.80
2018-08-07T15:13:49.621Z,5.53
2018-08-07T15:16:17.788Z,5.80
2018-08-07T15:18:46.092Z,5.08
2018-08-07T15:21:14.691Z,5.25
2018-08-07T15:23:42.875Z,5.85
2018-08-07T15:26:11.194Z,4.70
2018-08-07T15:28:39.381Z,4.50
2018-08-07T15:31:08.463Z,4.35
2018-08-07T15:33:36.643Z,4.25
2018-08-07T15:36:06.666Z,4.12
2018-08-07T15:38:35.390Z,4.35
2018-08-07T15:41:03.629Z,4.20
2018-08-07T15:43:31.977Z,4.70
2018-08-07T15:46:00.190Z,4.42
2018-08-07T15:48:28.397Z,4.45
2018-08-07T15:50:56.639Z,4.50
2018-08-07T15:53:24.818Z,4.42
2018-08-07T15:55:53.005Z,4.83
2018-08-07T15:58:21.143Z,4.28
2018-08-07T16:00:49.417Z,4.62
2018-08-07T16:03:17.653Z,4.83
2018-08-07T16:05:45.840Z,4.42
2018-08-07T16:08:14.073Z,4.70
2018-08-07T16:10:42.301Z,4.70
2018-08-07T16:13:10.870Z,4.75
2018-08-07T16:15:39.016Z,4.60
2018-08-07T16:18:07.549Z,4.90
2018-08-07T16:20:36.042Z,4.60
2018-08-07T16:23:04.501Z,5.28
2018-08-07T16:25:32.702Z,4.83
2018-08-07T16:28:00.871Z,4.97
2018-08-07T16:30:29.514Z,4.72
2018-08-07T16:32:57.589Z,4.72
2018-08-07T16:35:25.821Z,5.45
2018-08-07T16:37:54.076Z,4.58
2018-08-07T16:40:23.489Z,5.03
2018-08-07T16:42:52.889Z,4.45
2018-08-07T16:45:22.327Z,4.85
2018-08-07T16:47:50.857Z,4.50
2018-08-07T16:50:25.142Z,4.28
2018-08-07T16:52:54.417Z,4.45
2018-08-07T16:55:24.902Z,4.00
2018-08-07T16:57:53.165Z,3.98
2018-08-07T17:00:21.674Z,3.85
2018-08-07T17:02:50.457Z,4.00
2018-08-07T17:05:18.817Z,3.52
2018-08-07T17:07:47.855Z,3.52
2018-08-07T17:10:25.145Z,3.58
2018-08-07T17:12:53.354Z,3.70
2018-08-07T17:15:22.302Z,3.50
2018-08-07T17:17:51.339Z,3.60
2018-08-07T17:20:22.584Z,4.08
2018-08-07T17:22:51.350Z,4.33
2018-08-07T17:25:20.817Z,3.70
2018-08-07T17:27:49.568Z,3.62
2018-08-07T17:30:19.649Z,3.87
2018-08-07T17:32:48.033Z,3.92
2018-08-07T17:35:18.243Z,3.65
2018-08-07T17:37:47.123Z,4.70
2018-08-07T17:40:16.833Z,3.77
2018-08-07T17:42:45.027Z,4.08
2018-08-07T17:45:13.409Z,4.67
2018-08-07T17:47:41.357Z,4.42
2018-08-07T17:50:11.759Z,4.47
2018-08-07T17:52:40.077Z,4.15
2018-08-07T17:55:08.994Z,4.42
2018-08-07T17:57:38.491Z,4.10
2018-08-07T18:00:22.609Z,4.33
2018-08-07T18:02:50.813Z,4.60
2018-08-07T18:05:19.029Z,4.80
2018-08-07T18:07:49.063Z,4.28
2018-08-07T18:10:18.429Z,3.95
2018-08-07T18:12:46.677Z,4.00
2018-08-07T18:15:16.077Z,4.85
2018-08-07T18:17:45.277Z,4.55
2018-08-07T18:20:20.109Z,4.20
2018-08-07T18:22:48.674Z,3.90
2018-08-07T18:25:17.633Z,4.22
2018-08-07T18:27:45.964Z,4.53
2018-08-07T18:30:15.659Z,4.00
2018-08-07T18:32:44.276Z,4.40
2018-08-07T18:35:17.645Z,4.10
2018-08-07T18:37:45.556Z,5.00
2018-08-07T18:40:13.758Z,4.62
2018-08-07T18:42:42.403Z,4.50
2018-08-07T18:45:12.291Z,4.30
2018-08-07T18:47:41.888Z,4.80
2018-08-07T18:50:11.777Z,4.33
2018-08-07T18:52:40.671Z,4.42
2018-08-07T18:55:11.562Z,4.75
2018-08-07T18:57:40.650Z,4.47
2018-08-07T19:00:11.077Z,4.62
2018-08-07T19:02:39.795Z,4.90
2018-08-07T19:05:08.941Z,5.15
2018-08-07T19:07:37.717Z,3.98
2018-08-07T19:10:05.896Z,4.30
2018-08-07T19:12:34.074Z,4.28
2018-08-07T19:15:02.234Z,4.17
2018-08-07T19:17:30.390Z,3.83
2018-08-07T19:19:58.630Z,3.12
2018-08-07T19:22:26.797Z,3.45
2018-08-07T19:24:54.981Z,3.45
2018-08-07T19:27:23.166Z,3.40
2018-08-07T19:29:51.832Z,3.10
2018-08-07T19:32:20.075Z,3.30
2018-08-07T19:34:48.271Z,3.33
2018-08-07T19:37:16.443Z,2.83
2018-08-07T19:39:44.582Z,2.65
2018-08-07T19:42:12.799Z,2.70
2018-08-07T19:44:41.029Z,3.42
2018-08-07T19:47:09.534Z,3.40
2018-08-07T19:49:37.729Z,3.05
2018-08-07T19:52:06.166Z,3.40
2018-08-07T19:54:34.479Z,3.52
2018-08-07T19:57:02.641Z,3.40
2018-08-07T19:59:31.025Z,3.47
2018-08-07T20:01:58.961Z,3.10
2018-08-07T20:04:27.198Z,3.35
2018-08-07T20:06:55.354Z,2.98
2018-08-07T20:09:23.698Z,2.80
2018-08-07T20:11:52.061Z,2.62
2018-08-07T20:14:20.486Z,3.00
2018-08-07T20:16:48.659Z,3.40
2018-08-07T20:19:16.990Z,2.70
2018-08-07T20:21:45.403Z,3.52
2018-08-07T20:24:13.601Z,3.00
2018-08-07T20:26:41.841Z,2.90
2018-08-07T20:29:10.057Z,2.83
2018-08-07T20:31:38.289Z,2.90
2018-08-07T20:34:06.501Z,2.65
2018-08-07T20:36:34.760Z,2.85
2018-08-07T20:39:03.026Z,2.70
2018-08-07T20:41:31.012Z,2.60
2018-08-07T20:43:59.250Z,2.52
2018-08-07T20:46:27.839Z,2.92
2018-08-07T20:48:56.046Z,2.45
2018-08-07T20:51:24.273Z,2.72
2018-08-07T20:53:52.453Z,3.17
2018-08-07T20:56:20.637Z,2.80
2018-08-07T20:58:49.656Z,2.83
2018-08-07T21:01:17.957Z,2.55
2018-08-07T21:03:46.165Z,2.80
2018-08-07T21:06:14.378Z,2.90
2018-08-07T21:08:42.550Z,3.10
2018-08-07T21:11:10.732Z,2.60
2018-08-07T21:13:38.946Z,2.75
2018-08-07T21:16:07.182Z,2.70
2018-08-07T21:18:35.324Z,2.65
2018-08-07T21:21:03.853Z,2.85
2018-08-07T21:23:32.102Z,2.47
2018-08-07T21:26:00.301Z,2.85
2018-08-07T21:28:28.583Z,2.87
2018-08-07T21:30:56.850Z,3.20
2018-08-07T21:33:25.048Z,3.22
2018-08-07T21:35:53.244Z,3.20
2018-08-07T21:38:21.377Z,3.20
2018-08-07T21:40:49.664Z,3.40
2018-08-07T21:43:17.806Z,3.42
2018-08-07T21:45:46.243Z,3.65
2018-08-07T21:48:14.460Z,3.27
2018-08-07T21:50:43.363Z,3.50
2018-08-07T21:53:11.609Z,3.77
2018-08-07T21:55:39.810Z,3.50
2018-08-07T21:58:07.950Z,3.75
2018-08-07T22:00:43.240Z,3.65
2018-08-07T22:03:11.473Z,3.70
2018-08-07T22:05:39.717Z,3.62
2018-08-07T22:08:08.794Z,3.62
2018-08-07T22:10:37.127Z,3.72
2018-08-07T22:13:06.198Z,2.92
2018-08-07T22:15:34.431Z,3.72
2018-08-07T22:18:02.381Z,3.50
2018-08-07T22:20:30.574Z,3.90
2018-08-07T22:22:58.791Z,3.55
2018-08-07T22:25:27.028Z,3.58
2018-08-07T22:27:55.889Z,3.20
2018-08-07T22:30:24.224Z,3.95
2018-08-07T22:32:52.390Z,3.22
2018-08-07T22:35:20.605Z,3.25
2018-08-07T22:37:52.433Z,3.47
2018-08-07T22:40:20.616Z,3.45
2018-08-07T22:42:48.851Z,3.40
2018-08-07T22:45:18.144Z,3.35
2018-08-07T22:47:46.394Z,3.05
2018-08-07T22:50:16.022Z,2.92
2018-08-07T22:52:44.713Z,3.17
2018-08-07T22:55:16.355Z,3.05
2018-08-07T22:57:49.551Z,3.25
2018-08-07T23:00:19.530Z,3.22
2018-08-07T23:02:47.645Z,3.20
2018-08-07T23:05:16.889Z,3.25
2018-08-07T23:07:45.097Z,3.12
2018-08-07T23:10:19.666Z,3.52
2018-08-07T23:12:47.923Z,3.08
2018-08-07T23:15:18.130Z,3.42
2018-08-07T23:17:46.913Z,3.33
2018-08-07T23:20:16.653Z,3.50
2018-08-07T23:22:44.559Z,3.40
2018-08-07T23:25:12.878Z,3.62
2018-08-07T23:27:41.041Z,3.30
2018-08-07T23:30:14.967Z,3.10
2018-08-07T23:32:43.156Z,3.17
2018-08-07T23:35:11.442Z,3.20
2018-08-07T23:37:39.602Z,3.33
2018-08-07T23:40:09.297Z,3.60
2018-08-07T23:42:37.576Z,3.45
2018-08-07T23:45:07.071Z,3.30
2018-08-07T23:47:35.363Z,3.40
2018-08-07T23:50:03.530Z,3.12
2018-08-07T23:52:31.681Z,3.20
2018-08-07T23:55:00.359Z,3.83
2018-08-07T23:57:28.536Z,2.98
2018-08-07T23:59:56.724Z,3.35
